Time;durP1;ratioP1;P1;durP2;ratioP2;P2;SDS_P1;SDS_P2;PMS_P1;PMS_P2;Temp;Humidity;BMP_temperature;BMP_pressure;BME280_temperature;BME280_humidity;BME280_pressure;Samples;Min_cycle;Max_cycle;Signal;HPM_P1;HPM_P2
2023/01/21 00:01:09;;;;;;;3.50;2.10;;;-2.60;99.90;;;;;;5049996;28;20216;-75
2023/01/21 00:03:34;;;;;;;2.90;2.60;;;-2.60;99.90;;;;;;5051567;28;20410;-76
2023/01/21 00:06:00;;;;;;;2.73;2.37;;;-2.60;99.90;;;;;;5051421;28;20179;-76
2023/01/21 00:08:26;;;;;;;3.33;2.50;;;-2.60;99.90;;;;;;5051431;28;20659;-76
2023/01/21 00:10:52;;;;;;;2.83;2.40;;;-2.60;99.90;;;;;;5051150;28;20219;-76
2023/01/21 00:13:18;;;;;;;4.95;2.80;;;-2.70;99.90;;;;;;5051451;28;20184;-76
2023/01/21 00:15:44;;;;;;;3.10;2.30;;;-2.70;99.90;;;;;;5051812;28;20182;-76
2023/01/21 00:18:09;;;;;;;2.77;2.57;;;-2.60;99.90;;;;;;5033507;28;20194;-76
2023/01/21 00:20:35;;;;;;;4.37;3.47;;;-2.60;99.90;;;;;;5051192;28;20445;-76
2023/01/21 00:23:01;;;;;;;4.10;2.60;;;-2.70;99.90;;;;;;5049734;28;20253;-76
2023/01/21 00:25:27;;;;;;;4.87;2.40;;;-2.60;99.90;;;;;;5051240;28;20450;-76
2023/01/21 00:27:52;;;;;;;5.17;3.00;;;-2.60;99.90;;;;;;5051607;28;20730;-76
2023/01/21 00:30:18;;;;;;;3.63;2.97;;;-2.60;99.90;;;;;;5051365;28;20481;-75
2023/01/21 00:32:44;;;;;;;3.33;3.03;;;-2.60;99.90;;;;;;5051503;28;20565;-75
2023/01/21 00:35:09;;;;;;;4.97;2.83;;;-2.60;99.90;;;;;;5051356;28;20214;-76
2023/01/21 00:37:35;;;;;;;3.60;3.27;;;-2.50;99.90;;;;;;5033156;28;20818;-76
2023/01/21 00:40:00;;;;;;;3.90;3.07;;;-2.50;99.90;;;;;;5051195;28;20702;-76
2023/01/21 00:42:27;;;;;;;5.87;3.27;;;-2.50;99.90;;;;;;5050888;28;20200;-76
2023/01/21 00:44:53;;;;;;;4.35;3.65;;;-2.50;99.90;;;;;;5033091;28;20183;-77
2023/01/21 00:47:19;;;;;;;7.57;3.75;;;-2.40;99.90;;;;;;5050934;28;20175;-76
2023/01/21 00:49:45;;;;;;;5.10;3.27;;;-2.40;99.90;;;;;;5049831;28;20222;-76
2023/01/21 00:52:10;;;;;;;5.00;3.10;;;-2.50;99.90;;;;;;5051125;28;20227;-75
2023/01/21 00:54:36;;;;;;;5.80;3.10;;;-2.50;99.90;;;;;;5051083;28;20586;-76
2023/01/21 00:57:01;;;;;;;3.43;3.13;;;-2.50;99.90;;;;;;5049275;28;20183;-76
2023/01/21 00:59:27;;;;;;;6.20;3.37;;;-2.50;99.90;;;;;;5049331;28;20230;-77
2023/01/21 01:01:53;;;;;;;4.87;3.77;;;-2.60;99.90;;;;;;5049383;28;20270;-75
2023/01/21 01:04:19;;;;;;;4.20;3.50;;;-2.60;99.90;;;;;;5050718;28;20184;-76
2023/01/21 01:06:45;;;;;;;5.95;3.80;;;-2.60;99.90;;;;;;5049657;28;20188;-75
2023/01/21 01:09:11;;;;;;;3.50;3.20;;;-2.70;99.90;;;;;;5049661;28;20207;-76
2023/01/21 01:11:37;;;;;;;13.98;4.55;;;-2.80;99.90;;;;;;5033390;28;20450;-76
2023/01/21 01:14:03;;;;;;;4.67;4.03;;;-2.90;99.90;;;;;;5049583;28;20233;-75
2023/01/21 01:16:29;;;;;;;8.90;5.13;;;-2.90;99.90;;;;;;5050449;28;20505;-75
2023/01/21 01:18:55;;;;;;;6.10;4.80;;;-2.90;99.90;;;;;;5050445;28;20415;-75
2023/01/21 01:21:21;;;;;;;5.20;4.70;;;-2.90;99.90;;;;;;5050351;28;20203;-75
2023/01/21 01:23:48;;;;;;;6.47;4.25;;;-3.00;99.90;;;;;;5050519;28;20418;-77
2023/01/21 01:26:16;;;;;;;9.57;4.53;;;-3.00;99.90;;;;;;5050260;28;20179;-76
2023/01/21 01:28:41;;;;;;;9.32;6.80;;;-3.00;99.90;;;;;;5050075;28;20210;-76
2023/01/21 01:31:10;;;;;;;13.00;7.07;;;-3.00;99.90;;;;;;5048237;28;20199;-76
2023/01/21 01:33:35;;;;;;;10.43;5.43;;;-3.20;99.90;;;;;;5049582;28;20214;-76
2023/01/21 01:36:03;;;;;;;15.87;8.63;;;-3.30;99.90;;;;;;5047982;28;20578;-76
2023/01/21 01:38:29;;;;;;;18.83;8.23;;;-3.40;99.90;;;;;;5049716;28;20188;-77
2023/01/21 01:40:56;;;;;;;10.02;5.05;;;-3.50;99.90;;;;;;5049567;28;20314;-76
2023/01/21 01:43:46;;;;;;;5.67;4.67;;;-3.60;99.90;;;;;;5049415;28;20270;-77
2023/01/21 01:46:11;;;;;;;6.75;4.72;;;-3.70;99.90;;;;;;5048008;28;20195;-76
2023/01/21 01:48:38;;;;;;;10.90;5.90;;;-3.80;99.90;;;;;;5049286;28;20199;-76
2023/01/21 01:51:06;;;;;;;9.48;5.65;;;-3.90;99.90;;;;;;5047800;28;20214;-77
2023/01/21 01:53:33;;;;;;;8.93;5.95;;;-4.10;99.90;;;;;;5047812;28;20176;-76
2023/01/21 01:55:59;;;;;;;11.77;6.20;;;-4.10;99.90;;;;;;5047611;28;20183;-76
2023/01/21 01:58:25;;;;;;;7.70;5.13;;;-4.20;99.90;;;;;;5047759;28;20183;-77
2023/01/21 02:00:51;;;;;;;6.10;4.50;;;-4.20;99.90;;;;;;5047476;28;20845;-76
2023/01/21 02:06:01;;;;;;;5.80;5.10;;;-4.30;99.90;;;;;;5049184;28;20750;-77
2023/01/21 02:08:28;;;;;;;8.97;5.07;;;-4.40;99.90;;;;;;5047580;28;20192;-76
2023/01/21 02:10:55;;;;;;;6.38;4.55;;;-4.40;99.90;;;;;;5047272;28;20512;-76
2023/01/21 02:13:26;;;;;;;6.90;5.07;;;-4.50;99.90;;;;;;5047266;28;20190;-76
2023/01/21 02:16:06;;;;;;;5.63;4.70;;;-4.60;99.90;;;;;;5047576;28;20187;-76
2023/01/21 02:18:44;;;;;;;6.43;5.05;;;-4.60;99.90;;;;;;5048667;28;20183;-76
2023/01/21 02:21:21;;;;;;;5.82;4.88;;;-4.80;99.90;;;;;;5046974;28;20203;-76
2023/01/21 02:23:55;;;;;;;6.45;4.50;;;-4.80;99.90;;;;;;5048713;28;20234;-76
2023/01/21 02:27:02;;;;;;;8.48;4.80;;;-4.90;99.90;;;;;;5047219;28;20604;-76
2023/01/21 02:29:27;;;;;;;6.60;4.97;;;-4.90;99.90;;;;;;5048874;28;20203;-77
2023/01/21 02:32:17;;;;;;;7.60;5.53;;;-4.90;99.90;;;;;;5048795;28;20280;-76
2023/01/21 02:34:54;;;;;;;5.20;4.70;;;-5.00;99.90;;;;;;5048908;28;20715;-77
2023/01/21 02:37:37;;;;;;;8.75;5.30;;;-5.00;99.90;;;;;;5048432;28;20213;-75
2023/01/21 02:40:14;;;;;;;10.18;5.90;;;-5.00;99.90;;;;;;5048533;28;20717;-77
2023/01/21 02:42:58;;;;;;;7.20;5.13;;;-5.00;99.90;;;;;;5047404;28;20195;-75
2023/01/21 02:45:23;;;;;;;8.60;5.85;;;-5.20;99.90;;;;;;5048547;28;20210;-76
2023/01/21 02:48:05;;;;;;;7.63;5.10;;;-5.10;99.90;;;;;;5048466;28;20187;-75
2023/01/21 02:50:51;;;;;;;9.23;5.60;;;-5.20;99.90;;;;;;5048500;28;20204;-76
2023/01/21 02:53:26;;;;;;;7.97;5.40;;;-5.30;99.90;;;;;;5048447;28;20179;-76
2023/01/21 02:55:53;;;;;;;7.72;4.68;;;-5.30;99.90;;;;;;5048202;28;20679;-75
2023/01/21 02:58:23;;;;;;;6.35;5.00;;;-5.30;99.90;;;;;;5048270;28;20183;-76
2023/01/21 03:01:12;;;;;;;8.15;5.50;;;-5.30;99.90;;;;;;5048297;28;20302;-76
2023/01/21 03:03:53;;;;;;;14.55;6.18;;;-5.20;99.90;;;;;;5046774;28;20202;-76
2023/01/21 03:06:35;;;;;;;11.07;6.68;;;-5.20;99.90;;;;;;5048606;28;20176;-76
2023/01/21 03:09:15;;;;;;;8.98;6.03;;;-5.30;99.90;;;;;;5052164;28;20212;-76
2023/01/21 03:11:48;;;;;;;8.77;5.43;;;-5.30;99.90;;;;;;5050585;28;20672;-76
2023/01/21 03:17:15;;;;;;;7.70;5.65;;;-5.50;99.90;;;;;;5052307;28;20191;-76
2023/01/21 03:20:07;;;;;;;8.65;4.38;;;-5.60;99.90;;;;;;5052220;28;20229;-77
2023/01/21 03:22:34;;;;;;;6.70;4.43;;;-5.70;99.90;;;;;;5050085;28;20218;-76
2023/01/21 03:25:03;;;;;;;5.40;4.07;;;-5.80;99.90;;;;;;5050297;28;20743;-76
2023/01/21 03:27:30;;;;;;;8.00;4.30;;;-5.90;99.90;;;;;;5050669;28;20202;-77
2023/01/21 03:30:08;;;;;;;7.50;4.60;;;-6.00;99.90;;;;;;5052197;28;20212;-77
2023/01/21 03:32:35;;;;;;;8.05;5.18;;;-6.00;99.90;;;;;;5050731;28;20688;-76
2023/01/21 03:35:03;;;;;;;9.30;4.93;;;-6.00;99.90;;;;;;5053345;28;20183;-77
2023/01/21 03:38:01;;;;;;;9.30;5.05;;;-5.90;99.90;;;;;;5051210;28;20711;-76
2023/01/21 03:40:36;;;;;;;7.28;5.28;;;-5.90;99.90;;;;;;5027321;28;20194;-77
2023/01/21 03:43:02;;;;;;;7.30;5.13;;;-5.90;99.90;;;;;;5050699;28;20663;-77
2023/01/21 03:45:51;;;;;;;8.82;5.65;;;-5.80;99.90;;;;;;5050237;28;20534;-77
2023/01/21 03:48:31;;;;;;;9.25;6.38;;;-5.90;99.90;;;;;;5051738;28;20193;-77
2023/01/21 03:51:16;;;;;;;7.82;5.32;;;-5.90;99.90;;;;;;5051646;28;20711;-76
2023/01/21 03:53:42;;;;;;;8.63;5.45;;;-5.90;99.90;;;;;;5051499;28;20210;-76
2023/01/21 03:56:08;;;;;;;11.93;6.72;;;-6.00;99.90;;;;;;5033480;28;20188;-76
2023/01/21 03:58:33;;;;;;;8.37;6.00;;;-6.00;99.90;;;;;;5050291;28;20854;-76
2023/01/21 04:00:59;;;;;;;14.53;6.10;;;-5.90;99.90;;;;;;5051379;28;20688;-76
2023/01/21 04:03:25;;;;;;;9.07;5.20;;;-5.90;99.90;;;;;;5053155;28;20198;-77
2023/01/21 04:05:50;;;;;;;10.73;5.40;;;-5.90;99.90;;;;;;5053423;28;20195;-77
2023/01/21 04:08:16;;;;;;;8.27;5.77;;;-5.80;99.90;;;;;;5051489;28;20643;-77
2023/01/21 04:10:42;;;;;;;9.00;5.87;;;-5.90;99.90;;;;;;5050539;28;20222;-77
2023/01/21 04:13:07;;;;;;;11.30;5.53;;;-5.90;99.90;;;;;;5050486;28;20202;-76
2023/01/21 04:15:33;;;;;;;8.17;5.63;;;-5.90;99.90;;;;;;5049958;28;20185;-76
2023/01/21 04:17:58;;;;;;;8.87;5.90;;;-6.00;99.90;;;;;;5049311;28;20184;-76
2023/01/21 04:20:24;;;;;;;8.70;5.80;;;-6.00;99.90;;;;;;5051056;28;20269;-75
2023/01/21 04:22:50;;;;;;;13.70;5.87;;;-6.00;99.90;;;;;;5051323;28;20182;-75
2023/01/21 04:25:15;;;;;;;8.90;6.00;;;-6.00;99.90;;;;;;5050736;28;20189;-76
2023/01/21 04:27:41;;;;;;;8.00;5.67;;;-5.90;99.90;;;;;;5049358;28;20192;-75
2023/01/21 04:30:07;;;;;;;8.97;5.57;;;-5.90;99.90;;;;;;5032560;28;20273;-76
2023/01/21 04:32:33;;;;;;;7.72;5.53;;;-5.90;99.90;;;;;;5050640;28;20225;-76
2023/01/21 04:34:58;;;;;;;8.00;5.73;;;-6.00;99.90;;;;;;5049667;28;20651;-76
2023/01/21 04:37:24;;;;;;;7.90;5.60;;;-5.90;99.90;;;;;;5050115;28;20187;-77
2023/01/21 04:39:49;;;;;;;11.10;5.50;;;-5.90;99.90;;;;;;5051570;28;20212;-77
2023/01/21 04:42:15;;;;;;;13.13;6.20;;;-5.90;99.90;;;;;;5050758;28;20873;-77
2023/01/21 04:44:41;;;;;;;10.13;5.47;;;-5.80;99.90;;;;;;5049669;28;20207;-77
2023/01/21 04:47:06;;;;;;;7.20;5.27;;;-5.80;99.90;;;;;;5035392;28;20260;-77
2023/01/21 04:49:32;;;;;;;9.90;6.10;;;-5.90;99.90;;;;;;5051918;28;20595;-76
2023/01/21 04:51:57;;;;;;;9.60;4.77;;;-6.00;99.90;;;;;;5051825;28;20834;-77
2023/01/21 04:54:23;;;;;;;8.13;5.17;;;-6.00;99.90;;;;;;5051481;28;20189;-77
2023/01/21 04:56:48;;;;;;;9.47;5.33;;;-6.00;99.90;;;;;;5049682;28;20182;-76
2023/01/21 04:59:14;;;;;;;7.53;4.80;;;-6.10;99.90;;;;;;5049362;28;20276;-77
2023/01/21 05:01:40;;;;;;;10.20;5.90;;;-6.10;99.90;;;;;;5049925;28;20211;-77
2023/01/21 05:04:05;;;;;;;9.33;5.13;;;-6.10;99.90;;;;;;5049612;28;20271;-77
2023/01/21 05:06:31;;;;;;;11.23;5.50;;;-6.10;99.90;;;;;;5051372;28;20742;-77
2023/01/21 05:08:56;;;;;;;6.83;5.73;;;-6.10;99.90;;;;;;5033128;28;20195;-75
2023/01/21 05:11:22;;;;;;;9.70;6.17;;;-6.00;99.90;;;;;;5050880;28;20206;-74
2023/01/21 05:13:48;;;;;;;5.90;4.90;;;-6.00;99.90;;;;;;5050846;28;20619;-74
2023/01/21 05:16:13;;;;;;;12.13;6.27;;;-6.10;99.90;;;;;;5032713;28;20320;-74
2023/01/21 05:18:39;;;;;;;11.07;6.30;;;-6.10;99.90;;;;;;5050702;28;20192;-75
2023/01/21 05:21:06;;;;;;;10.07;7.05;;;-6.10;99.90;;;;;;5050610;28;20276;-75
2023/01/21 05:23:32;;;;;;;10.73;5.82;;;-6.20;99.90;;;;;;5050809;28;20659;-74
2023/01/21 05:25:57;;;;;;;11.13;6.37;;;-6.20;99.90;;;;;;5049045;28;20271;-73
2023/01/21 05:28:23;;;;;;;9.37;6.30;;;-6.20;99.90;;;;;;5050120;28;20422;-74
2023/01/21 05:30:49;;;;;;;9.50;7.00;;;-6.30;99.90;;;;;;5047756;28;20268;-74
2023/01/21 05:33:14;;;;;;;16.27;7.00;;;-6.30;99.90;;;;;;5049843;28;20418;-73
2023/01/21 05:35:40;;;;;;;14.07;8.30;;;-6.30;99.90;;;;;;5048712;28;20193;-74
2023/01/21 05:38:05;;;;;;;10.57;7.70;;;-6.30;99.90;;;;;;5050017;28;20210;-73
2023/01/21 05:40:31;;;;;;;13.50;7.83;;;-6.30;99.90;;;;;;5050167;28;20187;-74
2023/01/21 05:42:57;;;;;;;12.17;7.80;;;-6.20;99.90;;;;;;5049795;28;20228;-74
2023/01/21 05:45:22;;;;;;;15.07;9.30;;;-6.20;99.90;;;;;;5050143;28;20187;-77
2023/01/21 05:47:48;;;;;;;18.47;9.10;;;-6.20;99.90;;;;;;5048307;28;20194;-74
2023/01/21 05:50:14;;;;;;;14.60;9.10;;;-6.10;99.90;;;;;;5031361;28;20209;-74
2023/01/21 05:52:39;;;;;;;13.87;8.90;;;-6.10;99.90;;;;;;5048026;28;20299;-74
2023/01/21 05:55:06;;;;;;;10.20;7.50;;;-6.20;99.90;;;;;;5048258;28;20194;-75
2023/01/21 05:57:32;;;;;;;12.93;7.68;;;-6.20;99.90;;;;;;5048814;28;20650;-78
2023/01/21 05:59:58;;;;;;;12.00;7.87;;;-6.20;99.90;;;;;;5032017;28;20210;-74
2023/01/21 06:02:24;;;;;;;15.50;7.40;;;-6.20;99.90;;;;;;5049476;28;20523;-75
2023/01/21 06:04:49;;;;;;;12.65;7.38;;;-6.20;99.90;;;;;;5048042;28;20445;-78
2023/01/21 06:07:15;;;;;;;12.60;7.83;;;-6.30;99.90;;;;;;5049378;28;20654;-74
2023/01/21 06:09:41;;;;;;;14.13;7.77;;;-6.30;99.90;;;;;;5049574;28;20263;-74
2023/01/21 06:12:06;;;;;;;18.60;8.70;;;-6.40;99.90;;;;;;5049386;28;20197;-74
2023/01/21 06:14:32;;;;;;;11.60;7.10;;;-6.40;99.90;;;;;;5049195;28;20261;-73
2023/01/21 06:16:58;;;;;;;13.03;8.20;;;-6.50;99.90;;;;;;5048870;28;20268;-75
2023/01/21 06:19:23;;;;;;;11.00;6.70;;;-6.50;99.90;;;;;;5049118;28;20182;-78
2023/01/21 06:21:51;;;;;;;10.80;7.50;;;-6.50;99.90;;;;;;5047538;28;20766;-77
2023/01/21 06:24:16;;;;;;;11.35;7.63;;;-6.50;99.90;;;;;;5049116;28;20698;-77
2023/01/21 06:26:42;;;;;;;13.00;8.80;;;-6.50;99.90;;;;;;5030988;28;20285;-76
2023/01/21 06:29:07;;;;;;;10.93;7.80;;;-6.60;99.90;;;;;;5047332;28;20698;-76
2023/01/21 06:31:33;;;;;;;13.07;8.80;;;-6.60;99.90;;;;;;5048171;28;20580;-77
2023/01/21 06:33:59;;;;;;;13.97;8.17;;;-6.60;99.90;;;;;;5049561;28;20264;-78
2023/01/21 06:36:24;;;;;;;14.17;9.60;;;-6.60;99.90;;;;;;5047995;28;20301;-77
2023/01/21 06:38:50;;;;;;;13.60;8.40;;;-6.50;99.90;;;;;;5048896;28;20236;-78
2023/01/21 06:41:15;;;;;;;10.00;8.20;;;-6.50;99.90;;;;;;5051297;28;20206;-78
2023/01/21 06:43:41;;;;;;;14.03;8.63;;;-6.50;99.90;;;;;;5037909;28;20259;-78
2023/01/21 06:46:07;;;;;;;14.10;8.50;;;-6.50;99.90;;;;;;5037755;28;20191;-77
2023/01/21 06:48:32;;;;;;;12.80;8.77;;;-6.40;99.90;;;;;;5055766;28;20209;-77
2023/01/21 06:51:01;;;;;;;17.23;12.00;;;-6.40;99.90;;;;;;5054557;28;20221;-77
2023/01/21 06:53:27;;;;;;;16.10;10.35;;;-6.40;99.90;;;;;;5056501;28;20187;-77
2023/01/21 06:55:53;;;;;;;10.60;7.87;;;-6.40;99.90;;;;;;5056496;28;20183;-77
2023/01/21 06:58:18;;;;;;;15.40;9.67;;;-6.40;99.90;;;;;;5056508;28;20180;-77
2023/01/21 07:00:44;;;;;;;16.37;10.90;;;-6.30;99.90;;;;;;5055053;28;20517;-76
2023/01/21 07:03:10;;;;;;;18.67;9.93;;;-6.20;99.90;;;;;;5055070;28;20717;-77
2023/01/21 07:05:35;;;;;;;18.03;11.00;;;-6.20;99.90;;;;;;5054928;28;20258;-77
2023/01/21 07:08:01;;;;;;;19.23;10.20;;;-6.10;99.90;;;;;;5038179;28;20197;-77
2023/01/21 07:10:27;;;;;;;16.00;9.47;;;-6.10;99.90;;;;;;5055450;28;20279;-77
2023/01/21 07:12:52;;;;;;;16.03;9.33;;;-6.00;99.90;;;;;;5057136;28;20548;-77
2023/01/21 07:15:18;;;;;;;15.97;9.40;;;-5.90;99.90;;;;;;5059194;28;20237;-81
2023/01/21 07:17:43;;;;;;;16.07;9.83;;;-5.80;99.90;;;;;;5056899;28;20226;-78
2023/01/21 07:20:11;;;;;;;17.07;10.40;;;-5.80;99.90;;;;;;5055228;28;20194;-78
2023/01/21 07:22:37;;;;;;;29.77;13.25;;;-5.80;99.90;;;;;;5054769;28;20588;-78
2023/01/21 07:25:03;;;;;;;20.30;12.15;;;-5.80;99.90;;;;;;5066666;28;20239;-79
2023/01/21 07:27:29;;;;;;;22.97;12.30;;;-5.70;99.90;;;;;;5057347;28;20637;-79
2023/01/21 07:29:54;;;;;;;27.47;14.47;;;-5.50;99.90;;;;;;5039738;28;20710;-79
2023/01/21 07:32:20;;;;;;;25.50;12.87;;;-5.40;99.90;;;;;;5058050;28;20222;-79
2023/01/21 07:34:45;;;;;;;29.40;12.33;;;-5.40;99.90;;;;;;5056353;28;20209;-78
2023/01/21 07:37:11;;;;;;;28.47;12.40;;;-5.20;99.90;;;;;;5057817;28;20184;-78
2023/01/21 07:39:37;;;;;;;30.70;13.63;;;-5.10;99.90;;;;;;5057585;28;20191;-79
2023/01/21 07:42:02;;;;;;;29.30;14.63;;;-5.00;99.90;;;;;;5057628;28;20212;-79
2023/01/21 07:44:28;;;;;;;34.80;16.00;;;-4.90;99.90;;;;;;5055188;28;20191;-78
2023/01/21 07:46:53;;;;;;;33.37;17.33;;;-4.90;99.90;;;;;;5055450;28;20610;-79
2023/01/21 07:49:19;;;;;;;35.80;15.80;;;-4.80;99.90;;;;;;5054851;28;20211;-79
2023/01/21 07:51:45;;;;;;;33.50;15.43;;;-4.70;99.90;;;;;;5056185;28;20204;-79
2023/01/21 07:54:12;;;;;;;28.50;13.88;;;-4.70;99.90;;;;;;5051331;28;20178;-79
2023/01/21 07:56:38;;;;;;;29.13;14.45;;;-4.60;99.90;;;;;;5051927;28;20650;-79
2023/01/21 07:59:03;;;;;;;34.90;14.10;;;-4.40;99.90;;;;;;5053454;28;20188;-79
2023/01/21 08:01:30;;;;;;;26.90;13.40;;;-4.40;99.90;;;;;;5053421;28;20239;-79
2023/01/21 08:03:59;;;;;;;36.33;15.35;;;-4.40;99.90;;;;;;5051698;28;20233;-78
2023/01/21 08:06:25;;;;;;;36.40;15.80;;;-4.30;99.90;;;;;;5053144;28;20180;-78
2023/01/21 08:08:51;;;;;;;32.20;14.90;;;-4.30;99.90;;;;;;5052419;28;20180;-79
2023/01/21 08:11:16;;;;;;;33.83;15.00;;;-4.20;99.90;;;;;;5033950;28;20456;-79
2023/01/21 08:13:43;;;;;;;36.87;16.30;;;-4.20;99.90;;;;;;5035911;28;20187;-79
2023/01/21 08:16:10;;;;;;;29.80;13.48;;;-4.20;99.90;;;;;;5041093;28;20180;-79
2023/01/21 08:18:36;;;;;;;30.17;15.60;;;-4.10;99.90;;;;;;5055616;28;20286;-79
2023/01/21 08:21:02;;;;;;;28.27;13.83;;;-4.00;99.90;;;;;;5054278;28;20733;-80
2023/01/21 08:23:27;;;;;;;35.00;16.40;;;-3.90;99.90;;;;;;5052883;28;20487;-78
2023/01/21 08:25:53;;;;;;;31.77;16.17;;;-3.90;99.90;;;;;;5036126;28;20785;-82
2023/01/21 08:28:20;;;;;;;33.17;15.33;;;-3.80;99.90;;;;;;5035601;28;20196;-79
2023/01/21 08:30:45;;;;;;;37.55;16.23;;;-3.70;99.90;;;;;;5051589;28;20473;-80
2023/01/21 08:33:11;;;;;;;36.30;15.40;;;-3.70;99.90;;;;;;5035158;28;20183;-79
2023/01/21 08:35:37;;;;;;;33.60;14.57;;;-3.70;99.90;;;;;;5034669;28;20835;-79
2023/01/21 08:38:05;;;;;;;37.80;16.20;;;-3.60;99.90;;;;;;5034595;28;20190;-79
2023/01/21 08:40:31;;;;;;;38.35;17.50;;;-3.60;99.90;;;;;;5051434;28;20179;-80
2023/01/21 08:43:01;;;;;;;32.47;16.37;;;-3.50;99.90;;;;;;5034594;28;20665;-81
2023/01/21 08:45:28;;;;;;;27.95;14.27;;;-3.50;99.90;;;;;;5050948;28;20187;-78
2023/01/21 08:47:54;;;;;;;28.60;15.60;;;-3.40;99.90;;;;;;5050933;28;20187;-78
2023/01/21 08:50:20;;;;;;;36.88;16.83;;;-3.40;99.90;;;;;;5051997;28;20282;-78
2023/01/21 08:52:53;;;;;;;37.55;16.13;;;-3.30;99.90;;;;;;5052063;28;20176;-79
2023/01/21 08:55:20;;;;;;;34.53;15.82;;;-3.30;99.90;;;;;;5050282;28;20195;-78
2023/01/21 08:57:45;;;;;;;33.00;15.15;;;-3.20;99.90;;;;;;5050255;28;20187;-78
2023/01/21 09:00:13;;;;;;;37.33;17.60;;;-3.10;99.90;;;;;;5050126;28;20195;-78
2023/01/21 09:02:38;;;;;;;28.27;14.23;;;-3.10;99.90;;;;;;5050341;28;20207;-78
2023/01/21 09:05:04;;;;;;;34.40;14.77;;;-3.10;99.90;;;;;;5049446;28;20257;-77
2023/01/21 09:07:33;;;;;;;32.05;15.38;;;-3.00;99.90;;;;;;5033982;28;20198;-79
2023/01/21 09:09:58;;;;;;;29.90;15.88;;;-2.90;99.90;;;;;;5051710;28;20684;-79
2023/01/21 09:12:24;;;;;;;31.87;15.70;;;-2.90;99.90;;;;;;5033787;28;20287;-78
2023/01/21 09:14:49;;;;;;;37.40;16.00;;;-2.90;99.90;;;;;;5050644;28;20180;-78
2023/01/21 09:17:15;;;;;;;33.30;16.17;;;-2.90;99.90;;;;;;5050435;28;20681;-78
2023/01/21 09:19:41;;;;;;;32.63;16.40;;;-2.80;99.90;;;;;;5034059;28;20184;-79
2023/01/21 09:22:08;;;;;;;39.03;16.80;;;-2.80;99.90;;;;;;5033844;28;20214;-78
2023/01/21 09:24:34;;;;;;;38.67;15.20;;;-2.70;99.90;;;;;;5050230;28;20203;-77
2023/01/21 09:26:59;;;;;;;36.60;17.60;;;-2.70;99.90;;;;;;5051701;28;20176;-78
2023/01/21 09:29:25;;;;;;;37.93;18.17;;;-2.60;99.90;;;;;;5051682;28;20603;-77
2023/01/21 09:31:50;;;;;;;33.73;17.13;;;-2.60;99.90;;;;;;5051079;28;20196;-77
2023/01/21 09:34:16;;;;;;;35.97;17.70;;;-2.60;99.90;;;;;;5051027;28;20782;-77
2023/01/21 09:36:42;;;;;;;37.20;16.67;;;-2.50;99.90;;;;;;5033702;28;20184;-77
2023/01/21 09:39:07;;;;;;;30.83;15.07;;;-2.50;99.90;;;;;;5051299;28;20184;-78
2023/01/21 09:41:33;;;;;;;41.37;18.90;;;-2.50;99.90;;;;;;5049560;28;20211;-78
2023/01/21 09:44:10;;;;;;;37.03;18.10;;;-2.40;99.90;;;;;;5049404;28;20656;-77
2023/01/21 09:46:53;;;;;;;43.58;18.30;;;-2.30;99.90;;;;;;5050766;28;20251;-78
2023/01/21 09:49:42;;;;;;;35.45;17.90;;;-2.30;99.90;;;;;;5050802;28;20195;-78
2023/01/21 09:52:20;;;;;;;38.47;16.20;;;-2.20;99.90;;;;;;5048753;28;20208;-78
2023/01/21 09:54:46;;;;;;;32.67;16.75;;;-2.10;99.90;;;;;;5052737;28;20187;-78
2023/01/21 09:57:23;;;;;;;26.67;14.40;;;-2.10;99.90;;;;;;5052658;28;20184;-79
2023/01/21 10:00:07;;;;;;;25.02;13.90;;;-2.00;99.90;;;;;;5051480;28;20397;-77
2023/01/21 10:02:58;;;;;;;26.23;13.80;;;-2.00;99.90;;;;;;5049036;28;20231;-77
2023/01/21 10:05:23;;;;;;;30.67;16.05;;;-2.10;99.90;;;;;;5049007;28;20187;-79
2023/01/21 10:08:22;;;;;;;40.33;19.80;;;-2.10;99.90;;;;;;5050510;28;20209;-78
2023/01/21 10:11:07;;;;;;;23.70;14.13;;;-2.00;99.90;;;;;;5048763;28;20989;-77
2023/01/21 10:14:04;;;;;;;38.45;15.80;;;-2.00;99.90;;;;;;5048158;28;20194;-77
2023/01/21 10:16:54;;;;;;;28.95;15.23;;;-1.90;99.90;;;;;;5047551;28;20314;-78
2023/01/21 10:19:27;;;;;;;31.35;15.48;;;-1.90;99.90;;;;;;5049687;28;20250;-79
2023/01/21 10:22:04;;;;;;;27.17;15.32;;;-1.80;99.90;;;;;;5049599;28;20195;-77
2023/01/21 10:24:35;;;;;;;27.50;14.38;;;-1.80;99.90;;;;;;5049559;28;20221;-77
2023/01/21 10:27:00;;;;;;;31.00;16.65;;;-1.80;99.90;;;;;;5048580;28;20210;-78
2023/01/21 10:29:27;;;;;;;24.17;14.67;;;-1.80;99.90;;;;;;5048253;28;20771;-77
2023/01/21 10:31:58;;;;;;;33.50;18.00;;;-1.80;99.90;;;;;;5049135;28;20191;-79
2023/01/21 10:34:28;;;;;;;34.70;17.50;;;-1.70;99.90;;;;;;5049898;28;20258;-78
2023/01/21 10:37:19;;;;;;;32.97;17.00;;;-1.80;99.90;;;;;;5049433;28;20171;-77
2023/01/21 10:40:02;;;;;;;31.65;18.17;;;-1.90;99.90;;;;;;5049514;28;20188;-77
2023/01/21 10:42:45;;;;;;;31.90;17.95;;;-1.90;99.90;;;;;;5049817;28;20208;-78
2023/01/21 10:45:13;;;;;;;35.70;18.42;;;-1.90;99.90;;;;;;5047622;28;20188;-78
2023/01/21 10:47:49;;;;;;;32.25;16.67;;;-1.80;99.90;;;;;;5049191;28;20262;-78
2023/01/21 10:50:17;;;;;;;29.25;17.10;;;-1.90;99.90;;;;;;5047937;28;20702;-77
2023/01/21 10:52:59;;;;;;;45.90;22.05;;;-1.90;99.90;;;;;;5050147;28;20179;-79
2023/01/21 10:55:58;;;;;;;45.85;23.50;;;-1.80;99.90;;;;;;5048513;28;20207;-78
2023/01/21 10:58:24;;;;;;;38.35;19.38;;;-1.80;99.90;;;;;;5050272;28;20755;-78
2023/01/21 11:00:51;;;;;;;31.33;18.90;;;-1.80;99.90;;;;;;5050068;28;20223;-78
2023/01/21 11:03:40;;;;;;;46.65;19.67;;;-1.70;99.90;;;;;;5051495;28;20207;-79
2023/01/21 11:06:09;;;;;;;34.45;18.98;;;-1.70;99.90;;;;;;5033888;28;20691;-78
2023/01/21 11:08:37;;;;;;;36.88;19.85;;;-1.70;99.90;;;;;;5052038;28;20175;-77
2023/01/21 11:11:05;;;;;;;43.78;18.80;;;-1.70;99.90;;;;;;5051384;28;20215;-77
2023/01/21 11:13:31;;;;;;;34.15;19.75;;;-1.70;99.90;;;;;;5052365;28;20176;-77
2023/01/21 11:15:58;;;;;;;36.97;20.50;;;-1.70;99.90;;;;;;5051238;28;20180;-77
2023/01/21 11:18:29;;;;;;;33.17;18.77;;;-1.80;99.90;;;;;;5052884;28;20180;-77
2023/01/21 11:20:59;;;;;;;37.30;18.23;;;-1.80;99.90;;;;;;5050954;28;20216;-77
2023/01/21 11:23:29;;;;;;;35.72;19.50;;;-1.80;99.90;;;;;;5051393;28;20184;-78
2023/01/21 11:26:14;;;;;;;36.83;19.80;;;-1.80;99.90;;;;;;5051052;28;20251;-78
2023/01/21 11:28:40;;;;;;;40.60;21.70;;;-1.70;99.90;;;;;;5051081;28;20192;-78
2023/01/21 11:31:12;;;;;;;37.33;19.30;;;-1.70;99.90;;;;;;5035474;28;20250;-78
2023/01/21 11:33:40;;;;;;;35.65;19.17;;;-1.60;99.90;;;;;;5053329;28;20255;-77
2023/01/21 11:36:17;;;;;;;35.83;19.48;;;-1.70;99.90;;;;;;5052413;28;20571;-78
2023/01/21 11:38:46;;;;;;;39.65;20.92;;;-1.60;99.90;;;;;;5053460;28;20181;-77
2023/01/21 11:41:11;;;;;;;38.22;19.75;;;-1.50;99.90;;;;;;5051995;28;20200;-77
2023/01/21 11:43:52;;;;;;;35.33;18.70;;;-1.50;99.90;;;;;;5052694;28;20664;-76
2023/01/21 11:46:35;;;;;;;40.38;21.23;;;-1.50;99.90;;;;;;5053434;28;20179;-79
2023/01/21 11:49:27;;;;;;;41.20;20.10;;;-1.50;99.90;;;;;;5052831;28;20194;-77
2023/01/21 11:52:17;;;;;;;35.58;19.70;;;-1.40;99.90;;;;;;5052133;28;20235;-77
2023/01/21 11:54:43;;;;;;;37.00;19.85;;;-1.40;99.90;;;;;;5052870;28;20332;-77
2023/01/21 11:57:38;;;;;;;41.83;22.50;;;-1.40;99.90;;;;;;5051259;28;20222;-77
2023/01/21 12:00:15;;;;;;;40.42;21.08;;;-1.40;99.90;;;;;;5039783;28;20766;-77
2023/01/21 12:02:47;;;;;;;38.78;20.30;;;-1.30;99.90;;;;;;5050161;28;20306;-76
2023/01/21 12:05:30;;;;;;;37.35;21.02;;;-1.30;99.90;;;;;;5051898;28;20278;-76
2023/01/21 12:07:57;;;;;;;37.30;20.48;;;-1.30;99.90;;;;;;5050066;28;20883;-77
2023/01/21 12:10:27;;;;;;;43.10;21.88;;;-1.40;99.90;;;;;;5051392;28;20204;-77
2023/01/21 12:13:34;;;;;;;41.17;21.98;;;-1.30;99.90;;;;;;5050397;28;20177;-77
2023/01/21 12:16:14;;;;;;;41.33;19.90;;;-1.20;99.90;;;;;;5049626;28;20195;-77
2023/01/21 12:18:50;;;;;;;45.75;22.27;;;-1.20;99.90;;;;;;5051377;28;20297;-77
2023/01/21 12:21:51;;;;;;;45.10;22.23;;;-1.10;99.90;;;;;;5051490;28;20207;-77
2023/01/21 12:24:40;;;;;;;41.60;21.40;;;-1.10;99.90;;;;;;5050966;28;20184;-77
2023/01/21 12:27:25;;;;;;;36.92;20.90;;;-1.00;99.90;;;;;;5052178;28;20649;-76
2023/01/21 12:30:28;;;;;;;43.42;20.75;;;-1.10;99.90;;;;;;5050879;28;20786;-78
2023/01/21 12:33:00;;;;;;;40.38;20.98;;;-1.00;99.90;;;;;;5050731;28;20175;-77
2023/01/21 12:35:39;;;;;;;40.65;22.00;;;-1.00;99.90;;;;;;5051996;28;20565;-77
2023/01/21 12:38:20;;;;;;;36.65;20.70;;;-1.00;99.90;;;;;;5052021;28;20549;-77
2023/01/21 12:41:07;;;;;;;45.72;23.45;;;-1.00;99.90;;;;;;5033341;28;20269;-76
2023/01/21 12:43:38;;;;;;;38.45;21.75;;;-1.00;99.90;;;;;;5050436;28;20192;-77
2023/01/21 12:46:23;;;;;;;45.20;22.08;;;-0.90;99.90;;;;;;5050694;28;20557;-78
2023/01/21 12:49:16;;;;;;;41.65;21.05;;;-1.00;99.90;;;;;;5052136;28;20183;-77
2023/01/21 12:51:49;;;;;;;35.67;19.85;;;-1.00;99.90;;;;;;5052480;28;20203;-75
2023/01/21 12:54:44;;;;;;;36.25;20.10;;;-0.90;99.90;;;;;;5052284;28;20274;-76
2023/01/21 12:57:22;;;;;;;37.33;21.65;;;-0.90;99.90;;;;;;5050431;28;20183;-77